createdAt,value
2023-02-16T00:01:11.857Z,1006.86
2023-02-16T00:06:16.023Z,1006.89
2023-02-16T00:11:20.187Z,1006.87
2023-02-16T00:16:24.424Z,1006.73
2023-02-16T00:21:26.610Z,1006.71
2023-02-16T00:26:30.798Z,1006.43
2023-02-16T00:31:33.198Z,1006.31
2023-02-16T00:36:37.188Z,1006.26
2023-02-16T00:41:39.486Z,1006.09
2023-02-16T00:46:43.678Z,1006.00
2023-02-16T00:51:47.842Z,1005.94
2023-02-16T00:56:51.987Z,1005.66
2023-02-16T01:01:56.261Z,1005.45
2023-02-16T01:07:00.356Z,1005.43
2023-02-16T01:12:04.463Z,1005.60
2023-02-16T01:17:08.676Z,1006.13
2023-02-16T01:22:12.830Z,1006.63
2023-02-16T01:27:16.966Z,1007.09
2023-02-16T01:32:21.248Z,1007.58
2023-02-16T01:37:25.308Z,1007.80
2023-02-16T01:42:29.483Z,1008.15
2023-02-16T01:47:33.622Z,1008.57
2023-02-16T01:52:37.823Z,1008.67
2023-02-16T01:57:41.967Z,1008.85
2023-02-16T02:02:46.145Z,1008.82
2023-02-16T02:07:50.266Z,1008.80
2023-02-16T02:12:54.521Z,1008.91
2023-02-16T02:17:58.622Z,1008.79
2023-02-16T02:23:02.770Z,1008.87
2023-02-16T02:28:05.054Z,1008.93
2023-02-16T02:33:09.218Z,1008.97
2023-02-16T02:38:11.472Z,1008.90
2023-02-16T02:43:15.626Z,1008.80
2023-02-16T02:48:19.819Z,1008.69
2023-02-16T02:53:23.977Z,1008.62
2023-02-16T02:58:28.134Z,1008.66
2023-02-16T03:03:32.275Z,1008.71
2023-02-16T03:08:36.460Z,1008.61
2023-02-16T03:13:40.635Z,1008.66
2023-02-16T03:18:44.772Z,1008.54
2023-02-16T03:23:48.956Z,1008.31
2023-02-16T03:28:53.116Z,1008.19
2023-02-16T03:33:57.303Z,1007.72
2023-02-16T03:39:01.465Z,1007.38
2023-02-16T03:44:05.639Z,1007.35
2023-02-16T03:49:09.747Z,1007.36
2023-02-16T03:54:13.941Z,1007.30
2023-02-16T03:59:18.098Z,1007.25
2023-02-16T04:04:22.311Z,1007.19
2023-02-16T04:09:26.414Z,1007.10
2023-02-16T04:14:30.574Z,1007.00
2023-02-16T04:19:34.766Z,1007.01
2023-02-16T04:24:37.071Z,1006.91
2023-02-16T04:29:41.190Z,1006.70
2023-02-16T04:34:45.371Z,1006.59
2023-02-16T04:39:47.626Z,1006.67
2023-02-16T04:44:51.791Z,1006.58
2023-02-16T04:49:55.959Z,1006.71
2023-02-16T04:55:00.132Z,1006.79
2023-02-16T05:00:04.297Z,1006.81
2023-02-16T05:05:08.448Z,1006.67
2023-02-16T05:10:12.604Z,1006.69
2023-02-16T05:15:16.778Z,1006.73
2023-02-16T05:20:20.972Z,1006.59
2023-02-16T05:25:25.109Z,1006.66
2023-02-16T05:30:29.331Z,1006.49
2023-02-16T05:35:33.427Z,1006.41
2023-02-16T05:40:37.598Z,1006.43
2023-02-16T05:45:41.775Z,1006.46
2023-02-16T05:50:46.377Z,1006.19
2023-02-16T05:55:50.106Z,1005.83
2023-02-16T06:00:54.277Z,1005.83
2023-02-16T06:05:58.430Z,1005.94
2023-02-16T06:11:03.010Z,1006.07
2023-02-16T06:16:08.861Z,1006.01
2023-02-16T06:21:10.996Z,1005.95
2023-02-16T06:26:13.208Z,1005.77
2023-02-16T06:31:17.669Z,1005.70
2023-02-16T06:36:19.653Z,1005.60
2023-02-16T06:41:23.827Z,1005.57
2023-02-16T06:46:28.056Z,1005.87
2023-02-16T06:51:32.155Z,1005.70
2023-02-16T06:56:37.974Z,1005.80
2023-02-16T07:01:40.465Z,1005.84
2023-02-16T07:06:44.841Z,1006.01
2023-02-16T07:11:48.814Z,1005.84
2023-02-16T07:16:52.948Z,1005.87
2023-02-16T07:21:57.117Z,1005.80
2023-02-16T07:27:01.293Z,1006.11
2023-02-16T07:32:05.653Z,1006.12
2023-02-16T07:37:09.605Z,1006.18
2023-02-16T07:42:13.825Z,1006.30
2023-02-16T07:47:17.930Z,1006.30
2023-02-16T07:52:22.118Z,1006.35
2023-02-16T07:57:26.299Z,1006.16
2023-02-16T08:02:30.559Z,1006.21
2023-02-16T08:07:34.622Z,1006.46
2023-02-16T08:12:38.781Z,1006.57
2023-02-16T08:17:42.939Z,1006.77
2023-02-16T08:22:45.183Z,1007.07
2023-02-16T08:27:49.396Z,1007.32
2023-02-16T08:32:51.648Z,1007.95
2023-02-16T08:37:55.824Z,1008.43
2023-02-16T08:42:59.980Z,1008.91
2023-02-16T08:48:04.201Z,1009.23
2023-02-16T08:53:08.280Z,1009.51
2023-02-16T08:58:12.444Z,1009.44
2023-02-16T09:03:16.634Z,1009.72
2023-02-16T09:08:20.753Z,1009.89
2023-02-16T09:13:24.930Z,1010.06
2023-02-16T09:18:29.118Z,1010.14
2023-02-16T09:23:33.229Z,1010.37
2023-02-16T09:28:37.456Z,1010.38
2023-02-16T09:33:41.611Z,1010.43
2023-02-16T09:38:45.773Z,1010.39
2023-02-16T09:43:49.877Z,1010.54
2023-02-16T09:48:54.059Z,1010.73
2023-02-16T09:53:58.211Z,1010.81
2023-02-16T09:59:02.387Z,1010.84
2023-02-16T10:04:06.627Z,1010.90
2023-02-16T10:09:10.712Z,1010.91
2023-02-16T10:14:14.915Z,1010.94
2023-02-16T10:19:17.152Z,1011.04
2023-02-16T10:24:21.363Z,1011.03
2023-02-16T10:29:25.491Z,1011.11
2023-02-16T10:34:29.807Z,1011.08
2023-02-16T10:39:31.930Z,1011.06
2023-02-16T10:44:36.104Z,1010.95
2023-02-16T10:49:40.257Z,1010.83
2023-02-16T10:54:44.401Z,1010.59
2023-02-16T10:59:48.603Z,1010.50
2023-02-16T11:04:52.738Z,1010.43
2023-02-16T11:09:56.906Z,1010.38
2023-02-16T11:15:01.080Z,1010.28
2023-02-16T11:20:05.207Z,1010.08
2023-02-16T11:25:09.388Z,1010.05
2023-02-16T11:30:13.595Z,1009.96
2023-02-16T11:35:17.752Z,1009.92
2023-02-16T11:40:21.902Z,1009.72
2023-02-16T11:45:26.017Z,1009.65
2023-02-16T11:50:30.187Z,1009.66
2023-02-16T11:55:34.339Z,1009.57
2023-02-16T12:00:38.499Z,1009.45
2023-02-16T12:05:42.670Z,1009.32
2023-02-16T12:10:46.813Z,1009.16
2023-02-16T12:15:51.096Z,1008.91
2023-02-16T12:20:55.145Z,1008.47
2023-02-16T12:25:57.421Z,1008.04
2023-02-16T12:31:01.597Z,1007.75
2023-02-16T12:36:04.121Z,1007.40
2023-02-16T12:41:08.082Z,1007.04
2023-02-16T12:46:12.188Z,1006.92
2023-02-16T12:51:16.329Z,1006.62
2023-02-16T12:56:20.479Z,1006.60
2023-02-16T13:01:24.683Z,1006.57
2023-02-16T13:06:28.799Z,1006.63
2023-02-16T13:11:33.023Z,1006.66
2023-02-16T13:16:37.209Z,1006.80
2023-02-16T13:21:50.535Z,1006.85
2023-02-16T13:26:45.629Z,1006.88
2023-02-16T13:31:49.821Z,1006.96
2023-02-16T13:36:53.789Z,1006.94
2023-02-16T13:41:57.942Z,1006.95
2023-02-16T13:47:02.119Z,1007.09
2023-02-16T13:52:06.246Z,1007.15
2023-02-16T13:57:10.507Z,1007.22
2023-02-16T14:02:14.599Z,1007.14
2023-02-16T14:12:22.918Z,1006.92
2023-02-16T14:17:27.079Z,1006.75
2023-02-16T14:22:31.221Z,1006.70
2023-02-16T14:27:33.499Z,1006.60
2023-02-16T14:32:37.688Z,1006.50
2023-02-16T14:37:41.829Z,1006.37
2023-02-16T14:42:46.004Z,1006.10
2023-02-16T14:47:50.152Z,1005.94
2023-02-16T14:52:54.304Z,1005.84
2023-02-16T14:57:58.447Z,1005.90
2023-02-16T15:03:02.648Z,1005.68
2023-02-16T15:08:06.767Z,1005.75
2023-02-16T15:13:10.958Z,1005.94
2023-02-16T15:18:15.134Z,1005.95
2023-02-16T15:23:19.268Z,1005.89
2023-02-16T15:28:23.431Z,1005.69
2023-02-16T15:33:27.618Z,1005.71
2023-02-16T15:38:31.815Z,1005.56
2023-02-16T15:43:35.944Z,1005.78
2023-02-16T15:48:40.107Z,1005.99
2023-02-16T15:53:44.215Z,1006.31
2023-02-16T15:58:48.381Z,1006.13
2023-02-16T16:03:53.260Z,1005.97
2023-02-16T16:08:56.716Z,1006.02
2023-02-16T16:13:58.982Z,1005.89
2023-02-16T16:19:03.375Z,1005.72
2023-02-16T16:24:05.469Z,1005.58
2023-02-16T16:29:09.588Z,1005.76
2023-02-16T16:34:11.831Z,1005.68
2023-02-16T16:39:16.018Z,1005.68
2023-02-16T16:44:20.189Z,1005.76
2023-02-16T16:49:24.394Z,1005.90
2023-02-16T16:54:28.543Z,1005.86
2023-02-16T16:59:32.666Z,1005.81
2023-02-16T17:04:36.839Z,1005.96
2023-02-16T17:09:41.026Z,1006.10
2023-02-16T17:14:45.159Z,1006.04
2023-02-16T17:19:47.426Z,1006.11
2023-02-16T17:24:51.560Z,1006.24
2023-02-16T17:29:55.805Z,1006.32
2023-02-16T17:34:59.892Z,1006.16
2023-02-16T17:40:04.086Z,1006.18
2023-02-16T17:45:08.246Z,1006.13
2023-02-16T17:50:12.399Z,1006.23
2023-02-16T17:55:16.526Z,1006.33
2023-02-16T18:00:20.732Z,1006.44
2023-02-16T18:05:24.844Z,1006.52
2023-02-16T18:10:29.021Z,1006.53
2023-02-16T18:15:33.202Z,1006.47
2023-02-16T18:20:37.459Z,1005.70
2023-02-16T18:25:39.620Z,1004.87
2023-02-16T18:30:43.864Z,1004.32
2023-02-16T18:35:47.968Z,1004.07
2023-02-16T18:40:52.118Z,1003.89
2023-02-16T18:45:56.317Z,1003.69
2023-02-16T18:51:00.442Z,1003.45
2023-02-16T18:56:04.961Z,1003.23
2023-02-16T19:01:08.806Z,1002.66
2023-02-16T19:06:12.944Z,1002.35
2023-02-16T19:11:17.095Z,1001.91
2023-02-16T19:16:21.261Z,1001.35
2023-02-16T19:21:25.432Z,1000.95
2023-02-16T19:26:29.581Z,1000.54
2023-02-16T19:31:33.791Z,1000.30
2023-02-16T19:36:37.904Z,1000.06
2023-02-16T19:41:42.065Z,999.89
2023-02-16T19:46:46.192Z,999.77
2023-02-16T19:51:50.374Z,999.46
2023-02-16T19:56:54.532Z,999.39
2023-02-16T20:01:58.691Z,999.07
2023-02-16T20:07:00.948Z,998.86
2023-02-16T20:12:05.142Z,998.59
2023-02-16T20:17:07.386Z,998.36
2023-02-16T20:22:11.596Z,998.23
2023-02-16T20:27:13.845Z,998.06
2023-02-16T20:32:18.109Z,997.88
2023-02-16T20:37:22.194Z,997.87
2023-02-16T20:42:26.321Z,997.72
2023-02-16T20:47:30.493Z,997.57
2023-02-16T20:52:34.641Z,997.48
2023-02-16T20:57:38.789Z,997.42
2023-02-16T21:02:43.000Z,997.23
2023-02-16T21:07:49.145Z,997.32
2023-02-16T21:12:51.335Z,997.27
2023-02-16T21:17:55.456Z,997.22
2023-02-16T21:22:59.625Z,997.22
2023-02-16T21:28:03.763Z,997.21
2023-02-16T21:33:07.923Z,997.09
2023-02-16T21:38:12.092Z,996.95
2023-02-16T21:43:16.260Z,997.00
2023-02-16T21:48:20.427Z,996.80
2023-02-16T21:53:24.608Z,996.63
2023-02-16T21:58:28.782Z,996.54
2023-02-16T22:03:32.907Z,996.54
2023-02-16T22:08:37.222Z,996.24
2023-02-16T22:13:39.358Z,996.06
2023-02-16T22:18:43.525Z,996.04
2023-02-16T22:23:47.696Z,995.95
2023-02-16T22:28:51.841Z,995.97
2023-02-16T22:33:54.079Z,996.04
2023-02-16T22:38:58.348Z,996.04
2023-02-16T22:44:02.450Z,995.90
2023-02-16T22:49:06.665Z,995.83
2023-02-16T22:54:10.747Z,995.81
2023-02-16T22:59:14.925Z,995.78
2023-02-16T23:04:19.083Z,995.72
2023-02-16T23:09:23.244Z,995.64
2023-02-16T23:14:29.186Z,995.56
2023-02-16T23:19:31.556Z,995.52
2023-02-16T23:24:35.707Z,995.54
2023-02-16T23:29:39.908Z,995.49
2023-02-16T23:34:44.037Z,995.38
2023-02-16T23:39:48.205Z,995.31
2023-02-16T23:44:52.346Z,995.38
2023-02-16T23:49:56.518Z,995.26
2023-02-16T23:55:00.728Z,995.23
